createdAt,value
2019-03-10T00:00:11.200Z,10.14
2019-03-10T00:01:11.192Z,10.24
2019-03-10T00:02:11.183Z,10.18
2019-03-10T00:03:11.176Z,10.24
2019-03-10T00:04:11.168Z,10.25
2019-03-10T00:05:11.156Z,10.18
2019-03-10T00:06:11.199Z,10.20
2019-03-10T00:07:11.141Z,10.22
2019-03-10T00:08:11.133Z,10.24
2019-03-10T00:09:11.123Z,10.16
2019-03-10T00:10:11.111Z,10.17
2019-03-10T00:11:11.099Z,10.17
2019-03-10T00:12:11.092Z,10.22
2019-03-10T00:13:11.088Z,10.17
2019-03-10T00:14:11.080Z,10.13
2019-03-10T00:15:11.071Z,10.16
2019-03-10T00:16:11.065Z,10.16
2019-03-10T00:17:11.051Z,10.20
2019-03-10T00:18:11.038Z,10.25
2019-03-10T00:19:11.033Z,10.16
2019-03-10T00:20:11.037Z,10.14
2019-03-10T00:21:11.021Z,10.16
2019-03-10T00:22:11.014Z,10.14
2019-03-10T00:23:10.999Z,10.06
2019-03-10T00:24:10.991Z,10.06
2019-03-10T00:25:10.986Z,9.96
2019-03-10T00:26:10.976Z,10.04
2019-03-10T00:27:10.969Z,10.04
2019-03-10T00:28:10.959Z,9.98
2019-03-10T00:29:10.945Z,9.99
2019-03-10T00:30:10.937Z,9.95
2019-03-10T00:31:10.926Z,9.99
2019-03-10T00:32:10.917Z,9.91
2019-03-10T00:33:10.915Z,9.92
2019-03-10T00:34:10.906Z,9.96
2019-03-10T00:35:10.902Z,9.93
2019-03-10T00:36:10.893Z,9.93
2019-03-10T00:37:10.879Z,9.92
2019-03-10T00:38:10.868Z,9.92
2019-03-10T00:39:10.864Z,9.91
2019-03-10T00:40:10.856Z,9.95
2019-03-10T00:41:10.842Z,9.91
2019-03-10T00:42:10.833Z,9.93
2019-03-10T00:43:10.821Z,9.91
2019-03-10T00:44:10.813Z,9.88
2019-03-10T00:45:10.811Z,9.95
2019-03-10T00:46:10.799Z,9.92
2019-03-10T00:47:10.794Z,9.95
2019-03-10T00:48:10.786Z,9.95
2019-03-10T00:49:10.772Z,9.93
2019-03-10T00:50:10.822Z,9.92
2019-03-10T00:51:10.753Z,9.93
2019-03-10T00:52:10.743Z,9.91
2019-03-10T00:53:10.739Z,10.01
2019-03-10T00:54:10.731Z,9.96
2019-03-10T00:55:10.717Z,9.98
2019-03-10T00:56:10.709Z,9.95
2019-03-10T00:57:10.703Z,9.88
2019-03-10T00:58:10.695Z,9.92
2019-03-10T00:59:10.688Z,9.92
2019-03-10T01:00:10.679Z,9.92
2019-03-10T01:01:10.667Z,9.92
2019-03-10T01:02:10.658Z,9.96
2019-03-10T01:03:10.649Z,9.89
2019-03-10T01:04:10.642Z,9.95
2019-03-10T01:05:10.635Z,9.95
2019-03-10T01:06:10.624Z,9.95
2019-03-10T01:07:10.619Z,9.89
2019-03-10T01:08:10.607Z,9.92
2019-03-10T01:09:10.592Z,9.98
2019-03-10T01:10:10.583Z,9.93
2019-03-10T01:11:10.579Z,9.95
2019-03-10T01:12:10.570Z,9.96
2019-03-10T01:13:10.558Z,9.93
2019-03-10T01:14:10.552Z,9.98
2019-03-10T01:15:10.541Z,9.98
2019-03-10T01:16:10.533Z,9.95
2019-03-10T01:17:10.528Z,10.02
2019-03-10T01:18:10.520Z,9.91
2019-03-10T01:19:10.512Z,9.95
2019-03-10T01:20:10.502Z,9.95
2019-03-10T01:21:10.492Z,9.98
2019-03-10T01:22:10.479Z,9.95
2019-03-10T01:23:10.467Z,9.96
2019-03-10T01:24:10.461Z,9.95
2019-03-10T01:25:10.456Z,9.96
2019-03-10T01:26:10.448Z,9.96
2019-03-10T01:27:10.433Z,10.06
2019-03-10T01:28:10.424Z,10.01
2019-03-10T01:29:10.422Z,9.91
2019-03-10T01:30:10.411Z,10.01
2019-03-10T01:31:10.405Z,9.96
2019-03-10T01:32:10.397Z,10.02
2019-03-10T01:33:10.383Z,9.95
2019-03-10T01:34:10.373Z,9.95
2019-03-10T01:35:10.367Z,9.93
2019-03-10T01:36:10.357Z,9.93
2019-03-10T01:37:10.352Z,9.96
2019-03-10T01:38:10.345Z,9.95
2019-03-10T01:39:10.331Z,9.93
2019-03-10T01:40:10.324Z,9.98
2019-03-10T01:41:10.311Z,9.99
2019-03-10T01:42:10.314Z,9.98
2019-03-10T01:43:10.298Z,9.96
2019-03-10T01:44:10.288Z,9.93
2019-03-10T01:45:10.273Z,9.96
2019-03-10T01:46:10.265Z,9.96
2019-03-10T01:47:10.263Z,9.91
2019-03-10T01:48:10.252Z,9.91
2019-03-10T01:49:10.247Z,10.06
2019-03-10T01:50:10.236Z,9.95
2019-03-10T01:51:10.243Z,9.95
2019-03-10T01:52:10.217Z,9.98
2019-03-10T01:53:10.204Z,9.96
2019-03-10T01:54:10.256Z,9.96
2019-03-10T01:55:10.189Z,9.96
2019-03-10T01:56:10.181Z,10.02
2019-03-10T01:57:10.182Z,9.95
2019-03-10T01:58:10.167Z,9.92
2019-03-10T01:59:10.154Z,9.93
2019-03-10T02:00:10.144Z,9.92
2019-03-10T02:01:10.140Z,9.93
2019-03-10T02:02:10.136Z,9.91
2019-03-10T02:03:10.120Z,9.91
2019-03-10T02:04:10.111Z,9.92
2019-03-10T02:05:10.101Z,9.93
2019-03-10T02:06:10.089Z,9.92
2019-03-10T02:07:10.080Z,9.92
2019-03-10T02:08:10.073Z,9.95
2019-03-10T02:09:10.067Z,9.95
2019-03-10T02:10:10.059Z,9.96
2019-03-10T02:11:10.055Z,9.99
2019-03-10T02:12:10.043Z,9.91
2019-03-10T02:13:10.031Z,9.96
2019-03-10T02:14:10.021Z,9.95
2019-03-10T02:15:10.016Z,9.95
2019-03-10T02:16:10.010Z,9.92
2019-03-10T02:17:09.997Z,10.01
2019-03-10T02:18:09.986Z,9.89
2019-03-10T02:19:09.975Z,9.98
2019-03-10T02:20:09.965Z,9.95
2019-03-10T02:21:09.964Z,10.01
2019-03-10T02:22:09.952Z,9.91
2019-03-10T02:23:09.944Z,9.91
2019-03-10T02:24:09.936Z,9.92
2019-03-10T02:25:09.923Z,10.01
2019-03-10T02:26:09.914Z,9.95
2019-03-10T02:27:09.912Z,9.89
2019-03-10T02:28:09.898Z,9.91
2019-03-10T02:29:09.895Z,9.92
2019-03-10T02:30:09.886Z,9.93
2019-03-10T02:31:09.936Z,9.93
2019-03-10T02:32:09.874Z,9.96
2019-03-10T02:33:09.861Z,9.98
2019-03-10T02:34:09.895Z,10.01
2019-03-10T02:35:09.842Z,9.93
2019-03-10T02:36:09.832Z,9.85
2019-03-10T02:37:09.820Z,9.93
2019-03-10T02:38:09.812Z,9.91
2019-03-10T02:39:09.801Z,9.96
2019-03-10T02:40:09.794Z,9.89
2019-03-10T02:41:09.790Z,9.78
2019-03-10T02:42:09.789Z,9.75
2019-03-10T02:43:09.774Z,9.77
2019-03-10T02:44:09.765Z,9.77
2019-03-10T02:45:09.751Z,9.80
2019-03-10T02:46:09.743Z,9.75
2019-03-10T02:47:09.739Z,9.71
2019-03-10T02:48:09.731Z,9.73
2019-03-10T02:49:09.722Z,9.75
2019-03-10T02:50:09.714Z,9.67
2019-03-10T02:51:09.773Z,9.65
2019-03-10T02:52:09.689Z,9.62
2019-03-10T02:53:09.689Z,9.62
2019-03-10T02:54:09.696Z,9.62
2019-03-10T02:55:09.671Z,9.60
2019-03-10T02:56:09.660Z,9.70
2019-03-10T02:57:09.649Z,9.68
2019-03-10T02:58:09.641Z,9.62
2019-03-10T02:59:09.626Z,9.65
2019-03-10T03:00:09.619Z,9.65
2019-03-10T03:01:09.615Z,9.65
2019-03-10T03:02:09.606Z,9.53
2019-03-10T03:03:09.592Z,9.59
2019-03-10T03:04:09.585Z,9.60
2019-03-10T03:05:09.585Z,9.62
2019-03-10T03:06:09.574Z,9.63
2019-03-10T03:07:09.578Z,9.62
2019-03-10T03:08:09.561Z,9.49
2019-03-10T03:09:09.542Z,9.62
2019-03-10T03:10:09.534Z,9.60
2019-03-10T03:11:09.523Z,9.59
2019-03-10T03:12:09.516Z,9.56
2019-03-10T03:13:09.511Z,9.45
2019-03-10T03:14:09.502Z,9.53
2019-03-10T03:15:09.491Z,9.53
2019-03-10T03:16:09.480Z,9.52
2019-03-10T03:17:09.485Z,9.53
2019-03-10T03:18:09.458Z,9.55
2019-03-10T03:19:09.456Z,9.52
2019-03-10T03:20:09.446Z,9.48
2019-03-10T03:21:09.432Z,9.53
2019-03-10T03:22:09.427Z,9.44
2019-03-10T03:23:09.418Z,9.50
2019-03-10T03:24:09.413Z,9.52
2019-03-10T03:25:09.406Z,9.48
2019-03-10T03:26:09.427Z,9.40
2019-03-10T03:27:09.392Z,9.52
2019-03-10T03:28:09.378Z,9.59
2019-03-10T03:29:09.365Z,9.45
2019-03-10T03:30:09.373Z,9.53
2019-03-10T03:31:09.346Z,9.40
2019-03-10T03:32:09.337Z,9.48
2019-03-10T03:33:09.333Z,9.50
2019-03-10T03:34:09.325Z,9.42
2019-03-10T03:35:09.309Z,9.40
2019-03-10T03:36:09.302Z,9.44
2019-03-10T03:37:09.298Z,9.42
2019-03-10T03:38:09.287Z,9.42
2019-03-10T03:39:09.282Z,9.45
2019-03-10T03:40:09.272Z,9.44
2019-03-10T03:41:09.258Z,9.44
2019-03-10T03:42:09.250Z,9.44
2019-03-10T03:43:09.241Z,9.38
2019-03-10T03:44:09.237Z,9.41
2019-03-10T03:45:09.227Z,9.44
2019-03-10T03:46:09.218Z,9.42
2019-03-10T03:47:09.207Z,9.45
2019-03-10T03:48:09.199Z,9.45
2019-03-10T03:49:09.188Z,9.48
2019-03-10T03:50:09.174Z,9.49
2019-03-10T03:51:09.170Z,9.41
2019-03-10T03:52:09.162Z,9.44
2019-03-10T03:53:09.148Z,9.38
2019-03-10T03:54:09.138Z,9.44
2019-03-10T03:55:09.136Z,9.41
2019-03-10T03:56:09.140Z,9.40
2019-03-10T03:57:09.126Z,9.40
2019-03-10T03:58:09.111Z,9.30
2019-03-10T03:59:09.095Z,9.31
2019-03-10T04:00:09.083Z,9.32
2019-03-10T04:01:09.081Z,9.27
2019-03-10T04:02:09.071Z,9.15
2019-03-10T04:03:09.063Z,9.16
2019-03-10T04:04:09.056Z,9.17
2019-03-10T04:05:09.044Z,9.19
2019-03-10T04:06:09.035Z,9.13
2019-03-10T04:07:09.029Z,9.16
2019-03-10T04:08:09.019Z,9.13
2019-03-10T04:09:09.012Z,9.06
2019-03-10T04:10:08.997Z,9.13
2019-03-10T04:11:08.985Z,9.01
2019-03-10T04:12:08.976Z,9.00
2019-03-10T04:13:08.972Z,8.98
2019-03-10T04:14:08.964Z,9.00
2019-03-10T04:15:08.953Z,9.00
2019-03-10T04:16:08.945Z,8.96
2019-03-10T04:17:08.931Z,9.00
2019-03-10T04:18:08.922Z,9.06
2019-03-10T04:19:08.914Z,9.01
2019-03-10T04:20:08.914Z,9.03
2019-03-10T04:21:08.903Z,8.96
2019-03-10T04:22:08.890Z,9.01
2019-03-10T04:23:08.880Z,8.96
2019-03-10T04:24:08.869Z,9.00
2019-03-10T04:25:08.863Z,8.94
2019-03-10T04:26:08.854Z,8.94
2019-03-10T04:27:08.844Z,9.03
2019-03-10T04:28:08.836Z,8.88
2019-03-10T04:29:08.822Z,8.94
2019-03-10T04:30:08.810Z,8.86
2019-03-10T04:31:08.800Z,8.82
2019-03-10T04:32:08.793Z,8.80
2019-03-10T04:33:08.787Z,8.82
2019-03-10T04:34:08.779Z,8.78
2019-03-10T04:35:08.772Z,8.82
2019-03-10T04:36:08.761Z,8.76
2019-03-10T04:37:08.749Z,8.79
2019-03-10T04:38:08.738Z,8.76
2019-03-10T04:39:08.733Z,8.76
2019-03-10T04:40:08.725Z,8.67
2019-03-10T04:41:08.710Z,8.75
2019-03-10T04:42:08.705Z,8.68
2019-03-10T04:43:08.691Z,8.65
2019-03-10T04:44:08.683Z,8.58
2019-03-10T04:45:08.676Z,8.61
2019-03-10T04:46:08.664Z,8.61
2019-03-10T04:47:08.661Z,8.60
2019-03-10T04:48:08.650Z,8.63
2019-03-10T04:49:08.636Z,8.52
2019-03-10T04:50:08.622Z,8.50
2019-03-10T04:51:08.616Z,8.50
2019-03-10T04:52:08.608Z,8.50
2019-03-10T04:53:08.601Z,8.50
2019-03-10T04:54:08.593Z,8.49
2019-03-10T04:55:08.578Z,8.40
2019-03-10T04:56:08.568Z,8.55
2019-03-10T04:57:08.564Z,8.42
2019-03-10T04:58:08.554Z,8.52
2019-03-10T04:59:08.542Z,8.52
2019-03-10T05:00:08.533Z,8.40
2019-03-10T05:01:08.518Z,8.50
2019-03-10T05:02:08.507Z,8.42
2019-03-10T05:03:08.506Z,8.43
2019-03-10T05:04:08.491Z,8.43
2019-03-10T05:05:08.487Z,8.45
2019-03-10T05:06:08.477Z,8.37
2019-03-10T05:07:08.465Z,8.37
2019-03-10T05:08:08.456Z,8.36
2019-03-10T05:09:08.441Z,8.39
2019-03-10T05:10:08.432Z,8.28
2019-03-10T05:11:08.428Z,8.25
2019-03-10T05:12:08.417Z,8.29
2019-03-10T05:13:08.404Z,8.31
2019-03-10T05:14:08.396Z,8.32
2019-03-10T05:15:08.386Z,8.32
2019-03-10T05:16:08.376Z,8.22
2019-03-10T05:17:08.375Z,8.31
2019-03-10T05:18:08.362Z,8.25
2019-03-10T05:19:08.351Z,8.21
2019-03-10T05:20:08.342Z,8.24
2019-03-10T05:21:08.344Z,8.31
2019-03-10T05:22:08.317Z,8.21
2019-03-10T05:23:08.303Z,8.18
2019-03-10T05:24:08.294Z,8.20
2019-03-10T05:25:08.291Z,8.09
2019-03-10T05:26:08.279Z,8.20
2019-03-10T05:27:08.264Z,8.21
2019-03-10T05:28:08.256Z,8.24
2019-03-10T05:29:08.250Z,8.17
2019-03-10T05:30:08.241Z,8.24
2019-03-10T05:31:08.233Z,8.09
2019-03-10T05:32:08.223Z,8.21
2019-03-10T05:33:08.209Z,8.09
2019-03-10T05:34:08.202Z,8.04
2019-03-10T05:35:08.190Z,8.04
2019-03-10T05:36:08.180Z,8.07
2019-03-10T05:37:08.175Z,8.12
2019-03-10T05:38:08.165Z,8.17
2019-03-10T05:39:08.150Z,8.00
2019-03-10T05:40:08.145Z,8.02
2019-03-10T05:41:08.131Z,8.04
2019-03-10T05:42:08.114Z,8.13
2019-03-10T05:43:08.109Z,8.03
2019-03-10T05:44:08.103Z,8.09
2019-03-10T05:45:08.088Z,8.04
2019-03-10T05:46:08.074Z,8.03
2019-03-10T05:47:08.069Z,8.03
2019-03-10T05:48:08.062Z,8.02
2019-03-10T05:49:08.052Z,8.00
2019-03-10T05:50:08.041Z,8.12
2019-03-10T05:51:08.031Z,8.03
2019-03-10T05:52:08.021Z,8.10
2019-03-10T05:53:08.008Z,8.04
2019-03-10T05:54:07.996Z,8.04
2019-03-10T05:55:07.983Z,8.00
2019-03-10T05:56:07.973Z,7.91
2019-03-10T05:57:07.969Z,7.99
2019-03-10T05:58:07.958Z,8.13
2019-03-10T05:59:07.946Z,7.99
2019-03-10T06:00:07.933Z,8.09
2019-03-10T06:01:07.928Z,8.12
2019-03-10T06:02:07.917Z,8.09
2019-03-10T06:03:07.909Z,8.09
2019-03-10T06:04:07.899Z,8.10
2019-03-10T06:05:07.888Z,8.14
2019-03-10T06:06:07.875Z,8.12
2019-03-10T06:07:07.861Z,8.17
2019-03-10T06:08:07.854Z,8.21
2019-03-10T06:09:07.846Z,8.14
2019-03-10T06:10:07.837Z,8.04
2019-03-10T06:11:07.829Z,8.02
2019-03-10T06:12:07.818Z,8.04
2019-03-10T06:13:07.804Z,7.95
2019-03-10T06:14:07.792Z,8.02
2019-03-10T06:15:07.787Z,7.96
2019-03-10T06:16:07.776Z,7.88
2019-03-10T06:17:07.800Z,7.84
2019-03-10T06:18:13.643Z,7.86
2019-03-10T06:19:07.739Z,7.84
2019-03-10T06:20:07.728Z,7.85
2019-03-10T06:21:07.724Z,7.85
2019-03-10T06:22:07.717Z,7.84
2019-03-10T06:23:07.704Z,7.89
2019-03-10T06:24:07.692Z,7.88
2019-03-10T06:25:07.682Z,7.82
2019-03-10T06:26:07.666Z,7.86
2019-03-10T06:27:07.663Z,7.89
2019-03-10T06:28:07.650Z,7.88
2019-03-10T06:29:07.644Z,7.89
2019-03-10T06:30:07.633Z,7.73
2019-03-10T06:31:07.619Z,7.86
2019-03-10T06:32:07.609Z,7.76
2019-03-10T06:33:07.603Z,7.77
2019-03-10T06:34:07.592Z,7.77
2019-03-10T06:35:07.580Z,7.74
2019-03-10T06:36:07.574Z,7.82
2019-03-10T06:37:07.554Z,7.91
2019-03-10T06:38:07.545Z,7.89
2019-03-10T06:39:07.537Z,7.82
2019-03-10T06:40:07.527Z,7.63
2019-03-10T06:41:07.518Z,7.79
2019-03-10T06:42:07.509Z,7.81
2019-03-10T06:43:07.498Z,7.73
2019-03-10T06:44:07.488Z,7.60
2019-03-10T06:45:07.474Z,7.50
2019-03-10T06:46:07.464Z,7.54
2019-03-10T06:47:07.458Z,7.63
2019-03-10T06:48:07.447Z,7.69
2019-03-10T06:49:07.436Z,7.60
2019-03-10T06:50:07.421Z,7.60
2019-03-10T06:51:07.409Z,7.66
2019-03-10T06:52:07.402Z,7.66
2019-03-10T06:53:07.392Z,7.58
2019-03-10T06:54:07.383Z,7.66
2019-03-10T06:55:07.379Z,7.63
2019-03-10T06:56:07.363Z,7.44
2019-03-10T06:57:07.345Z,7.47
2019-03-10T06:58:07.333Z,7.52
2019-03-10T06:59:07.326Z,7.50
2019-03-10T07:00:07.315Z,7.51
2019-03-10T07:01:07.312Z,7.45
2019-03-10T07:02:07.299Z,7.51
2019-03-10T07:03:07.288Z,7.47
2019-03-10T07:04:07.276Z,7.44
2019-03-10T07:05:07.267Z,7.47
2019-03-10T07:06:07.256Z,7.45
2019-03-10T07:07:07.245Z,7.37
2019-03-10T07:08:07.232Z,7.41
2019-03-10T07:09:07.218Z,7.36
2019-03-10T07:10:07.206Z,7.45
2019-03-10T07:11:07.198Z,7.39
2019-03-10T07:12:07.189Z,7.41
2019-03-10T07:13:07.182Z,7.39
2019-03-10T07:14:07.178Z,7.32
2019-03-10T07:15:07.158Z,7.29
2019-03-10T07:16:07.148Z,7.29
2019-03-10T07:17:07.149Z,7.21
2019-03-10T07:18:07.120Z,7.27
2019-03-10T07:19:07.114Z,7.24
2019-03-10T07:20:07.104Z,7.24
2019-03-10T07:21:07.088Z,7.27
2019-03-10T07:22:07.078Z,7.26
2019-03-10T07:23:07.069Z,7.29
2019-03-10T07:24:07.057Z,7.41
2019-03-10T07:25:07.054Z,7.44
2019-03-10T07:26:07.042Z,7.41
2019-03-10T07:27:07.030Z,7.37
2019-03-10T07:28:07.020Z,7.29
2019-03-10T07:29:07.005Z,7.29
2019-03-10T07:30:06.992Z,7.41
2019-03-10T07:31:06.981Z,7.48
2019-03-10T07:32:08.854Z,7.47
2019-03-10T07:33:06.964Z,7.41
2019-03-10T07:34:06.954Z,7.48
2019-03-10T07:35:06.939Z,7.48
2019-03-10T07:36:06.925Z,7.50
2019-03-10T07:37:06.920Z,7.51
2019-03-10T07:38:06.963Z,7.62
2019-03-10T07:39:06.900Z,7.62
2019-03-10T07:40:06.891Z,7.57
2019-03-10T07:41:06.877Z,7.60
2019-03-10T07:42:06.863Z,7.66
2019-03-10T07:43:06.853Z,7.67
2019-03-10T07:44:06.842Z,7.69
2019-03-10T07:45:06.838Z,7.70
2019-03-10T07:46:06.825Z,7.62
2019-03-10T07:47:06.813Z,7.52
2019-03-10T07:48:06.802Z,7.67
2019-03-10T07:49:06.787Z,7.60
2019-03-10T07:50:06.775Z,7.58
2019-03-10T07:51:06.771Z,7.60
2019-03-10T07:52:06.759Z,7.57
2019-03-10T07:53:06.745Z,7.58
2019-03-10T07:54:06.736Z,7.55
2019-03-10T07:55:06.726Z,7.58
2019-03-10T07:56:06.717Z,7.58
2019-03-10T07:57:06.708Z,7.54
2019-03-10T07:58:06.698Z,7.52
2019-03-10T07:59:06.688Z,7.58
2019-03-10T08:00:06.677Z,7.58
2019-03-10T08:01:06.663Z,7.67
2019-03-10T08:02:06.651Z,7.66
2019-03-10T08:03:06.638Z,7.70
2019-03-10T08:04:06.628Z,7.74
2019-03-10T08:05:06.623Z,7.73
2019-03-10T08:06:06.611Z,7.89
2019-03-10T08:07:06.596Z,7.82
2019-03-10T08:08:06.587Z,7.81
2019-03-10T08:09:06.579Z,7.79
2019-03-10T08:10:06.570Z,7.85
2019-03-10T08:11:06.563Z,7.92
2019-03-10T08:12:06.552Z,7.88
2019-03-10T08:13:06.536Z,7.88
2019-03-10T08:14:06.524Z,7.89
2019-03-10T08:15:06.514Z,7.92
2019-03-10T08:16:06.505Z,7.95
2019-03-10T08:17:06.499Z,8.04
2019-03-10T08:18:06.489Z,8.03
2019-03-10T08:19:06.476Z,8.10
2019-03-10T08:20:06.466Z,8.04
2019-03-10T08:21:06.452Z,8.06
2019-03-10T08:22:06.475Z,8.17
2019-03-10T08:23:06.435Z,8.18
2019-03-10T08:24:06.429Z,8.22
2019-03-10T08:25:06.410Z,8.02
2019-03-10T08:26:06.399Z,8.25
2019-03-10T08:27:06.393Z,8.07
2019-03-10T08:28:06.386Z,8.18
2019-03-10T08:29:06.381Z,8.24
2019-03-10T08:30:06.366Z,8.28
2019-03-10T08:31:06.356Z,8.36
2019-03-10T08:32:06.347Z,8.43
2019-03-10T08:33:06.332Z,8.49
2019-03-10T08:34:06.320Z,8.52
2019-03-10T08:35:06.308Z,8.58
2019-03-10T08:36:06.299Z,8.68
2019-03-10T08:37:06.297Z,8.61
2019-03-10T08:38:06.283Z,8.73
2019-03-10T08:39:06.270Z,8.76
2019-03-10T08:40:06.258Z,8.76
2019-03-10T08:41:06.259Z,8.83
2019-03-10T08:42:06.243Z,8.86
2019-03-10T08:43:06.236Z,8.91
2019-03-10T08:44:06.227Z,9.10
2019-03-10T08:45:06.213Z,9.08
2019-03-10T08:46:06.205Z,8.86
2019-03-10T08:47:06.193Z,8.88
2019-03-10T08:48:06.189Z,9.08
2019-03-10T08:49:06.218Z,8.98
2019-03-10T08:50:06.168Z,9.12
2019-03-10T08:51:06.155Z,9.00
2019-03-10T08:52:06.148Z,9.08
2019-03-10T08:53:06.132Z,9.12
2019-03-10T08:54:06.123Z,9.22
2019-03-10T08:55:06.119Z,9.30
2019-03-10T08:56:06.183Z,9.40
2019-03-10T08:57:06.096Z,9.49
2019-03-10T08:58:06.085Z,9.56
2019-03-10T08:59:06.079Z,9.65
2019-03-10T09:00:06.072Z,9.74
2019-03-10T09:01:06.066Z,9.77
2019-03-10T09:02:06.057Z,9.95
2019-03-10T09:03:06.047Z,9.89
2019-03-10T09:04:06.040Z,9.89
2019-03-10T09:05:06.026Z,9.91
2019-03-10T09:06:06.060Z,9.68
2019-03-10T09:07:06.008Z,9.70
2019-03-10T09:08:05.998Z,9.73
2019-03-10T09:09:05.996Z,9.71
2019-03-10T09:10:05.986Z,9.86
2019-03-10T09:11:05.972Z,9.78
2019-03-10T09:12:05.963Z,9.80
2019-03-10T09:13:05.964Z,9.81
2019-03-10T09:14:05.952Z,9.95
2019-03-10T09:15:05.947Z,10.09
2019-03-10T09:16:05.938Z,10.18
2019-03-10T09:17:05.925Z,10.34
2019-03-10T09:18:05.917Z,10.49
2019-03-10T09:19:05.905Z,10.55
2019-03-10T09:20:05.897Z,10.69
2019-03-10T09:21:05.896Z,10.57
2019-03-10T09:22:05.886Z,10.68
2019-03-10T09:23:05.881Z,10.72
2019-03-10T09:24:05.873Z,10.78
2019-03-10T09:25:05.865Z,10.70
2019-03-10T09:26:05.984Z,10.86
2019-03-10T09:27:05.849Z,10.94
2019-03-10T09:28:05.847Z,10.95
2019-03-10T09:29:05.830Z,10.99
2019-03-10T09:30:05.823Z,11.13
2019-03-10T09:31:05.812Z,11.17
2019-03-10T09:32:05.804Z,11.46
2019-03-10T09:33:05.803Z,11.54
2019-03-10T09:34:05.794Z,11.45
2019-03-10T09:35:05.792Z,11.33
2019-03-10T09:36:05.783Z,11.35
2019-03-10T09:37:05.767Z,11.31
2019-03-10T09:38:05.769Z,11.35
2019-03-10T09:39:05.765Z,11.48
2019-03-10T09:40:05.749Z,11.66
2019-03-10T09:41:05.746Z,11.87
2019-03-10T09:42:05.738Z,11.81
2019-03-10T09:43:05.729Z,11.56
2019-03-10T09:44:05.720Z,11.62
2019-03-10T09:45:05.719Z,11.64
2019-03-10T09:46:05.710Z,11.56
2019-03-10T09:47:05.700Z,11.66
2019-03-10T09:48:05.695Z,11.48
2019-03-10T09:49:05.682Z,11.56
2019-03-10T09:50:05.744Z,11.57
2019-03-10T09:51:05.670Z,11.62
2019-03-10T09:52:05.660Z,11.62
2019-03-10T09:53:05.663Z,11.60
2019-03-10T09:54:05.652Z,11.69
2019-03-10T09:55:05.647Z,11.72
2019-03-10T09:56:05.641Z,11.74
2019-03-10T09:57:05.632Z,11.75
2019-03-10T09:58:05.622Z,11.85
2019-03-10T09:59:05.619Z,11.90
2019-03-10T10:00:05.611Z,11.94
2019-03-10T10:01:05.599Z,12.05
2019-03-10T10:02:05.590Z,12.04
2019-03-10T10:03:05.582Z,12.07
2019-03-10T10:04:05.574Z,12.12
2019-03-10T10:05:05.572Z,12.12
2019-03-10T10:06:05.564Z,12.11
2019-03-10T10:07:05.558Z,12.01
2019-03-10T10:08:05.551Z,12.07
2019-03-10T10:09:05.538Z,12.19
2019-03-10T10:10:05.531Z,12.11
2019-03-10T10:11:05.527Z,12.23
2019-03-10T10:12:13.441Z,12.21
2019-03-10T10:13:05.516Z,12.23
2019-03-10T10:14:05.506Z,12.33
2019-03-10T10:15:05.496Z,12.31
2019-03-10T10:16:05.489Z,12.38
2019-03-10T10:17:05.484Z,12.43
2019-03-10T10:18:05.480Z,12.26
2019-03-10T10:19:05.468Z,12.23
2019-03-10T10:20:05.460Z,12.30
2019-03-10T10:21:05.452Z,12.44
2019-03-10T10:22:05.439Z,12.48
2019-03-10T10:23:05.439Z,12.49
2019-03-10T10:24:05.433Z,12.77
2019-03-10T10:25:05.427Z,13.24
2019-03-10T10:26:05.418Z,13.86
2019-03-10T10:27:05.408Z,14.24
2019-03-10T10:28:05.402Z,14.16
2019-03-10T10:29:05.452Z,14.21
2019-03-10T10:30:05.384Z,14.56
2019-03-10T10:31:05.383Z,15.46
2019-03-10T10:32:05.375Z,16.60
2019-03-10T10:33:05.370Z,17.49
2019-03-10T10:34:05.361Z,18.31
2019-03-10T10:35:05.356Z,19.17
2019-03-10T10:36:05.353Z,19.38
2019-03-10T10:37:05.355Z,20.05
2019-03-10T10:38:05.349Z,20.04
2019-03-10T10:39:05.348Z,20.35
2019-03-10T10:40:05.346Z,20.68
2019-03-10T10:41:05.338Z,21.16
2019-03-10T10:42:05.337Z,21.27
2019-03-10T10:43:05.333Z,21.26
2019-03-10T10:44:05.333Z,21.42
2019-03-10T10:45:05.340Z,21.24
2019-03-10T10:46:05.338Z,21.42
2019-03-10T10:47:05.333Z,21.31
2019-03-10T10:48:05.338Z,21.49
2019-03-10T10:49:05.356Z,21.83
2019-03-10T10:50:05.356Z,22.23
2019-03-10T10:51:05.347Z,21.98
2019-03-10T10:52:05.360Z,20.94
2019-03-10T10:53:05.366Z,20.88
2019-03-10T10:54:05.349Z,21.37
2019-03-10T10:55:05.353Z,21.16
2019-03-10T10:56:05.378Z,21.08
2019-03-10T10:57:05.365Z,21.51
2019-03-10T10:58:05.676Z,21.37
2019-03-10T10:59:05.365Z,20.64
2019-03-10T11:00:05.369Z,20.50
2019-03-10T11:01:05.367Z,20.10
2019-03-10T11:02:05.369Z,19.17
2019-03-10T11:03:05.377Z,18.64
2019-03-10T11:04:05.381Z,18.09
2019-03-10T11:05:05.378Z,17.81
2019-03-10T11:06:05.381Z,17.28
2019-03-10T11:07:05.387Z,17.27
2019-03-10T11:08:05.389Z,16.81
2019-03-10T11:09:05.396Z,16.27
2019-03-10T11:10:05.399Z,16.18
2019-03-10T11:11:05.401Z,16.11
2019-03-10T11:12:05.402Z,15.78
2019-03-10T11:13:05.396Z,15.52
2019-03-10T11:14:05.397Z,15.52
2019-03-10T11:15:05.399Z,15.49
2019-03-10T11:16:05.395Z,15.34
2019-03-10T11:17:05.398Z,15.20
2019-03-10T11:18:09.346Z,15.13
2019-03-10T11:19:05.393Z,15.12
2019-03-10T11:20:05.391Z,15.13
2019-03-10T11:21:05.401Z,14.94
2019-03-10T11:22:05.392Z,14.85
2019-03-10T11:23:05.394Z,14.74
2019-03-10T11:24:05.394Z,14.71
2019-03-10T11:25:05.386Z,14.63
2019-03-10T11:26:05.384Z,14.71
2019-03-10T11:27:05.376Z,15.67
2019-03-10T11:28:05.375Z,16.77
2019-03-10T11:29:05.378Z,17.62
2019-03-10T11:30:05.374Z,17.74
2019-03-10T11:31:05.378Z,17.43
2019-03-10T11:32:05.374Z,17.17
2019-03-10T11:33:05.367Z,17.22
2019-03-10T11:34:05.366Z,17.27
2019-03-10T11:35:05.368Z,17.33
2019-03-10T11:36:05.366Z,17.76
2019-03-10T11:37:05.380Z,18.16
2019-03-10T11:38:05.362Z,18.13
2019-03-10T11:39:05.358Z,17.76
2019-03-10T11:40:05.375Z,17.07
2019-03-10T11:41:05.358Z,16.78
2019-03-10T11:42:05.356Z,16.11
2019-03-10T11:43:05.360Z,16.16
2019-03-10T11:44:05.356Z,16.22
2019-03-10T11:45:05.348Z,16.32
2019-03-10T11:46:05.349Z,16.29
2019-03-10T11:47:05.348Z,16.29
2019-03-10T11:48:05.345Z,16.40
2019-03-10T11:49:05.349Z,16.37
2019-03-10T11:50:05.346Z,16.32
2019-03-10T11:51:05.339Z,16.54
2019-03-10T11:52:05.339Z,16.52
2019-03-10T11:53:05.341Z,16.66
2019-03-10T11:54:05.340Z,16.82
2019-03-10T11:55:05.387Z,16.78
2019-03-10T11:56:05.333Z,17.00
2019-03-10T11:57:05.332Z,17.15
2019-03-10T11:58:05.324Z,16.96
2019-03-10T11:59:05.322Z,17.09
2019-03-10T12:00:05.321Z,16.92
2019-03-10T12:01:05.326Z,16.80
2019-03-10T12:02:15.512Z,16.77
2019-03-10T12:03:05.327Z,16.57
2019-03-10T12:04:05.320Z,16.54
2019-03-10T12:05:05.331Z,16.55
2019-03-10T12:06:05.311Z,16.51
2019-03-10T12:07:05.313Z,16.18
2019-03-10T12:08:05.312Z,16.26
2019-03-10T12:09:05.308Z,16.11
2019-03-10T12:10:05.304Z,15.96
2019-03-10T12:11:05.298Z,15.89
2019-03-10T12:12:05.297Z,15.76
2019-03-10T12:13:05.298Z,15.64
2019-03-10T12:14:05.295Z,15.67
2019-03-10T12:15:05.293Z,15.62
2019-03-10T12:16:05.290Z,15.71
2019-03-10T12:17:05.285Z,15.73
2019-03-10T12:18:05.281Z,16.03
2019-03-10T12:19:05.280Z,15.71
2019-03-10T12:20:05.279Z,15.84
2019-03-10T12:21:05.279Z,15.98
2019-03-10T12:22:05.275Z,16.10
2019-03-10T12:23:05.270Z,16.22
2019-03-10T12:24:05.266Z,16.25
2019-03-10T12:25:05.269Z,16.26
2019-03-10T12:26:05.264Z,16.32
2019-03-10T12:27:05.259Z,16.07
2019-03-10T12:28:05.257Z,16.07
2019-03-10T12:29:05.251Z,15.64
2019-03-10T12:30:05.247Z,15.76
2019-03-10T12:31:05.246Z,15.84
2019-03-10T12:32:05.242Z,15.86
2019-03-10T12:33:05.245Z,15.88
2019-03-10T12:34:05.588Z,16.04
2019-03-10T12:35:05.242Z,15.81
2019-03-10T12:36:05.233Z,15.67
2019-03-10T12:37:05.225Z,15.68
2019-03-10T12:38:05.222Z,15.48
2019-03-10T12:39:05.229Z,15.38
2019-03-10T12:40:05.228Z,15.48
2019-03-10T12:41:05.214Z,15.28
2019-03-10T12:42:05.209Z,15.15
2019-03-10T12:43:05.215Z,14.80
2019-03-10T12:44:05.207Z,14.52
2019-03-10T12:45:05.262Z,14.45
2019-03-10T12:46:05.213Z,14.19
2019-03-10T12:47:05.206Z,14.11
2019-03-10T12:48:05.199Z,13.88
2019-03-10T12:49:05.189Z,13.71
2019-03-10T12:50:05.186Z,13.63
2019-03-10T12:51:05.178Z,13.55
2019-03-10T12:52:05.176Z,13.46
2019-03-10T12:53:05.176Z,13.43
2019-03-10T12:54:05.171Z,13.25
2019-03-10T12:55:05.162Z,13.21
2019-03-10T12:56:05.159Z,13.13
2019-03-10T12:57:05.159Z,12.92
2019-03-10T12:58:05.154Z,12.87
2019-03-10T12:59:05.152Z,12.81
2019-03-10T13:00:05.146Z,12.71
2019-03-10T13:01:06.575Z,12.61
2019-03-10T13:02:05.131Z,12.51
2019-03-10T13:03:05.126Z,12.41
2019-03-10T13:04:05.122Z,12.36
2019-03-10T13:05:05.120Z,12.36
2019-03-10T13:06:05.115Z,12.41
2019-03-10T13:07:05.111Z,12.41
2019-03-10T13:08:05.102Z,12.43
2019-03-10T13:09:05.094Z,12.51